createdAt,value
2023-03-13T00:01:20.996Z,96197.78
2023-03-13T00:03:48.140Z,96193.09
2023-03-13T00:06:15.728Z,96188.03
2023-03-13T00:08:44.601Z,96186.31
2023-03-13T00:11:13.388Z,96181.03
2023-03-13T00:13:40.289Z,96177.38
2023-03-13T00:16:10.816Z,96178.13
2023-03-13T00:18:38.134Z,96176.91
2023-03-13T00:21:07.559Z,96163.72
2023-03-13T00:23:36.784Z,96169.50
2023-03-13T00:26:10.754Z,96166.88
2023-03-13T00:28:39.540Z,96161.63
2023-03-13T00:31:14.453Z,96160.38
2023-03-13T00:33:44.984Z,96160.22
2023-03-13T00:36:27.341Z,96165.44
2023-03-13T00:38:55.201Z,96150.31
2023-03-13T00:41:29.021Z,96146.63
2023-03-13T00:43:56.359Z,96149.03
2023-03-13T00:46:27.034Z,96144.09
2023-03-13T00:48:54.359Z,96144.19
2023-03-13T00:51:26.931Z,96141.53
2023-03-13T00:54:01.550Z,96141.50
2023-03-13T00:56:28.664Z,96141.63
2023-03-13T00:58:55.851Z,96130.69
2023-03-13T01:01:29.795Z,96122.84
2023-03-13T01:04:00.816Z,96131.91
2023-03-13T01:06:30.138Z,96128.19
2023-03-13T01:08:57.563Z,96133.66
2023-03-13T01:11:30.835Z,96130.75
2023-03-13T01:14:01.041Z,96124.41
2023-03-13T01:16:31.300Z,96122.69
2023-03-13T01:19:06.665Z,96119.59
2023-03-13T01:21:34.207Z,96105.22
2023-03-13T01:24:01.408Z,96103.22
2023-03-13T01:26:28.770Z,96111.69
2023-03-13T01:28:55.996Z,96097.97
2023-03-13T01:31:26.770Z,96099.25
2023-03-13T01:34:03.735Z,96100.88
2023-03-13T01:36:30.823Z,96105.22
2023-03-13T01:39:00.461Z,96098.13
2023-03-13T01:41:29.794Z,96093.50
2023-03-13T01:43:57.107Z,96097.13
2023-03-13T01:46:29.786Z,96087.91
2023-03-13T01:49:30.084Z,96082.88
2023-03-13T01:52:14.439Z,96084.91
2023-03-13T01:54:58.883Z,96084.00
2023-03-13T01:57:34.109Z,96072.03
2023-03-13T02:00:23.197Z,96088.00
2023-03-13T02:02:55.770Z,96073.75
2023-03-13T02:05:26.940Z,96073.59
2023-03-13T02:08:14.783Z,96073.56
2023-03-13T02:10:53.561Z,96061.56
2023-03-13T02:13:21.160Z,96063.53
2023-03-13T02:15:49.010Z,96060.28
2023-03-13T02:18:16.190Z,96061.56
2023-03-13T02:20:43.403Z,96069.00
2023-03-13T02:23:28.265Z,96066.78
2023-03-13T02:25:56.242Z,96058.63
2023-03-13T02:28:33.755Z,96074.47
2023-03-13T02:31:01.563Z,96059.19
2023-03-13T02:33:37.216Z,96060.66
2023-03-13T02:36:05.773Z,96068.03
2023-03-13T02:38:39.905Z,96071.94
2023-03-13T02:41:07.303Z,96068.47
2023-03-13T02:43:37.085Z,96072.31
2023-03-13T02:46:10.658Z,96076.81
2023-03-13T02:48:47.379Z,96069.94
2023-03-13T02:51:32.142Z,96072.81
2023-03-13T02:54:17.556Z,96074.06
2023-03-13T02:56:49.092Z,96069.19
2023-03-13T02:59:16.382Z,96074.44
2023-03-13T03:01:43.452Z,96072.63
2023-03-13T03:04:10.287Z,96067.97
2023-03-13T03:06:37.364Z,96065.47
2023-03-13T03:09:04.894Z,96073.50
2023-03-13T03:11:31.694Z,96077.00
2023-03-13T03:13:58.545Z,96079.38
2023-03-13T03:16:25.384Z,96065.47
2023-03-13T03:18:52.185Z,96078.44
2023-03-13T03:21:19.085Z,96073.31
2023-03-13T03:23:45.908Z,96074.81
2023-03-13T03:26:12.790Z,96080.81
2023-03-13T03:28:39.609Z,96077.56
2023-03-13T03:31:11.831Z,96072.88
2023-03-13T03:33:39.665Z,96075.69
2023-03-13T03:36:10.862Z,96069.69
2023-03-13T03:38:39.695Z,96074.31
2023-03-13T03:41:08.240Z,96072.91
2023-03-13T03:43:35.721Z,96067.69
2023-03-13T03:46:03.409Z,96068.06
2023-03-13T03:48:30.360Z,96074.94
2023-03-13T03:50:57.168Z,96064.06
2023-03-13T03:53:24.510Z,96064.47
2023-03-13T03:55:51.496Z,96050.75
2023-03-13T03:58:18.445Z,96047.13
2023-03-13T04:00:47.539Z,96047.13
2023-03-13T04:03:14.986Z,96035.03
2023-03-13T04:05:41.968Z,96027.56
2023-03-13T04:08:09.858Z,96026.56
2023-03-13T04:10:36.716Z,96019.69
2023-03-13T04:13:03.641Z,96018.09
2023-03-13T04:15:30.620Z,96014.09
2023-03-13T04:17:57.558Z,96010.75
2023-03-13T04:20:24.356Z,96007.41
2023-03-13T04:22:51.211Z,96008.72
2023-03-13T04:25:18.095Z,95990.56
2023-03-13T04:27:44.951Z,95994.56
2023-03-13T04:30:12.392Z,96008.16
2023-03-13T04:32:39.259Z,95997.31
2023-03-13T04:35:06.593Z,95993.66
2023-03-13T04:37:33.511Z,95987.84
2023-03-13T04:40:00.309Z,95982.00
2023-03-13T04:42:27.276Z,95976.38
2023-03-13T04:44:54.176Z,95979.69
2023-03-13T04:47:20.997Z,95970.03
2023-03-13T04:49:47.830Z,95971.25
2023-03-13T04:52:14.705Z,95959.59
2023-03-13T04:54:41.538Z,95958.41
2023-03-13T04:57:08.346Z,95970.13
2023-03-13T04:59:35.204Z,95954.03
2023-03-13T05:02:02.014Z,95957.28
2023-03-13T05:04:28.906Z,95948.88
2023-03-13T05:06:55.728Z,95950.78
2023-03-13T05:09:22.524Z,95947.66
2023-03-13T05:11:50.695Z,95947.66
2023-03-13T05:14:17.549Z,95947.31
2023-03-13T05:16:44.344Z,95942.09
2023-03-13T05:19:11.145Z,95948.34
2023-03-13T05:21:38.092Z,95949.78
2023-03-13T05:24:05.380Z,95949.81
2023-03-13T05:26:32.174Z,95946.19
2023-03-13T05:28:58.992Z,95945.78
2023-03-13T05:31:25.846Z,95939.34
2023-03-13T05:33:52.698Z,95929.72
2023-03-13T05:36:19.496Z,95932.91
2023-03-13T05:38:46.402Z,95931.69
2023-03-13T05:41:13.251Z,95944.16
2023-03-13T05:43:40.029Z,95924.84
2023-03-13T05:46:06.897Z,95918.44
2023-03-13T05:48:33.709Z,95908.00
2023-03-13T05:51:00.508Z,95919.28
2023-03-13T05:53:27.388Z,95875.81
2023-03-13T05:55:54.301Z,95908.75
2023-03-13T05:58:21.120Z,95922.97
2023-03-13T06:00:48.779Z,95915.41
2023-03-13T06:03:15.994Z,95894.84
2023-03-13T06:05:43.101Z,95904.13
2023-03-13T06:08:10.057Z,95910.97
2023-03-13T06:10:36.868Z,95886.00
2023-03-13T06:13:18.663Z,95881.19
2023-03-13T06:15:54.177Z,95899.31
2023-03-13T06:18:21.603Z,95894.88
2023-03-13T06:20:50.011Z,95886.44
2023-03-13T06:23:17.126Z,95885.84
2023-03-13T06:25:48.508Z,95879.97
2023-03-13T06:28:16.160Z,95887.47
2023-03-13T06:30:43.428Z,95876.56
2023-03-13T06:33:10.834Z,95869.91
2023-03-13T06:35:55.123Z,95870.69
2023-03-13T06:38:23.664Z,95858.59
2023-03-13T06:40:50.585Z,95865.84
2023-03-13T06:43:17.459Z,95867.47
2023-03-13T06:45:44.342Z,95862.81
2023-03-13T06:48:11.159Z,95865.84
2023-03-13T06:50:42.144Z,95858.38
2023-03-13T06:53:17.016Z,95867.06
2023-03-13T06:55:44.984Z,95867.06
2023-03-13T06:58:25.022Z,95861.00
2023-03-13T07:00:58.207Z,95854.91
2023-03-13T07:03:25.550Z,95858.13
2023-03-13T07:05:59.754Z,95855.69
2023-03-13T07:08:27.498Z,95857.69
2023-03-13T07:10:59.258Z,95848.78
2023-03-13T07:13:26.492Z,95850.81
2023-03-13T07:15:53.880Z,95847.94
2023-03-13T07:18:22.867Z,95852.63
2023-03-13T07:20:58.523Z,95856.03
2023-03-13T07:23:27.403Z,95858.84
2023-03-13T07:26:01.195Z,95855.63
2023-03-13T07:28:30.903Z,95857.84
2023-03-13T07:31:16.988Z,95852.34
2023-03-13T07:33:45.346Z,95856.19
2023-03-13T07:36:15.163Z,95856.31
2023-03-13T07:38:43.774Z,95858.69
2023-03-13T07:41:13.528Z,95863.13
2023-03-13T07:43:40.643Z,95862.22
2023-03-13T07:46:12.207Z,95861.97
2023-03-13T07:48:42.040Z,95855.06
2023-03-13T07:51:14.846Z,95847.91
2023-03-13T07:53:41.795Z,95844.88
2023-03-13T07:56:12.284Z,95854.38
2023-03-13T07:58:40.823Z,95839.78
2023-03-13T08:01:15.373Z,95835.72
2023-03-13T08:03:42.552Z,95827.28
2023-03-13T08:06:16.600Z,95829.78
2023-03-13T08:08:43.772Z,95825.59
2023-03-13T08:11:14.641Z,95822.13
2023-03-13T08:13:42.323Z,95828.34
2023-03-13T08:16:16.738Z,95827.59
2023-03-13T08:18:46.725Z,95838.06
2023-03-13T08:21:23.360Z,95839.75
2023-03-13T08:23:54.692Z,95841.63
2023-03-13T08:26:24.330Z,95842.22
2023-03-13T08:29:04.623Z,95833.75
2023-03-13T08:31:39.305Z,95836.66
2023-03-13T08:34:06.178Z,95837.47
2023-03-13T08:36:36.110Z,95825.84
2023-03-13T08:39:13.925Z,95837.94
2023-03-13T08:41:41.389Z,95837.59
2023-03-13T08:44:12.083Z,95827.44
2023-03-13T08:46:39.303Z,95825.41
2023-03-13T08:49:07.839Z,95825.44
2023-03-13T08:51:35.732Z,95832.34
2023-03-13T08:54:04.485Z,95818.19
2023-03-13T08:56:32.642Z,95820.13
2023-03-13T08:59:02.230Z,95811.00
2023-03-13T09:01:32.739Z,95813.00
2023-03-13T09:04:03.643Z,95813.22
2023-03-13T09:06:31.027Z,95816.94
2023-03-13T09:08:58.636Z,95810.53
2023-03-13T09:11:26.524Z,95807.84
2023-03-13T09:13:55.255Z,95805.41
2023-03-13T09:16:28.738Z,95802.22
2023-03-13T09:18:56.837Z,95806.47
2023-03-13T09:21:33.580Z,95797.94
2023-03-13T09:24:01.487Z,95802.72
2023-03-13T09:26:29.028Z,95796.31
2023-03-13T09:28:56.648Z,95797.88
2023-03-13T09:31:27.153Z,95787.88
2023-03-13T09:33:54.166Z,95784.63
2023-03-13T09:36:23.074Z,95768.84
2023-03-13T09:38:57.739Z,95779.31
2023-03-13T09:41:37.703Z,95772.81
2023-03-13T09:44:25.157Z,95763.84
2023-03-13T09:47:01.938Z,95757.31
2023-03-13T09:49:42.950Z,95764.91
2023-03-13T09:52:23.030Z,95745.16
2023-03-13T09:54:49.801Z,95739.09
2023-03-13T09:57:38.803Z,95730.78
2023-03-13T10:00:19.909Z,95732.88
2023-03-13T10:02:56.575Z,95742.59
2023-03-13T10:05:26.433Z,95744.31
2023-03-13T10:08:23.658Z,95730.72
2023-03-13T10:11:17.544Z,95730.69
2023-03-13T10:14:01.243Z,95727.75
2023-03-13T10:16:43.870Z,95719.09
2023-03-13T10:19:18.442Z,95723.22
2023-03-13T10:21:52.386Z,95713.50
2023-03-13T10:24:47.526Z,95705.00
2023-03-13T10:27:15.848Z,95724.72
2023-03-13T10:29:42.700Z,95718.97
2023-03-13T10:32:14.738Z,95716.69
2023-03-13T10:34:52.464Z,95692.50
2023-03-13T10:37:29.929Z,95707.44
2023-03-13T10:40:26.908Z,95699.28
2023-03-13T10:43:01.618Z,95695.75
2023-03-13T10:45:35.455Z,95695.00
2023-03-13T10:48:24.073Z,95684.97
2023-03-13T10:50:54.647Z,95693.06
2023-03-13T10:53:30.462Z,95694.94
2023-03-13T10:56:14.355Z,95679.00
2023-03-13T10:59:00.315Z,95688.22
2023-03-13T11:01:32.063Z,95686.50
2023-03-13T11:04:02.303Z,95676.44
2023-03-13T11:06:36.263Z,95675.59
2023-03-13T11:09:15.371Z,95665.56
2023-03-13T11:11:56.098Z,95664.13
2023-03-13T11:14:26.046Z,95658.53
2023-03-13T11:16:59.571Z,95661.03
2023-03-13T11:19:51.036Z,95665.66
2023-03-13T11:22:41.321Z,95658.13
2023-03-13T11:25:39.581Z,95649.69
2023-03-13T11:28:36.416Z,95656.34
2023-03-13T11:31:46.454Z,95649.50
2023-03-13T11:34:50.938Z,95644.97
2023-03-13T11:37:20.670Z,95658.09
2023-03-13T11:39:47.363Z,95648.97
2023-03-13T11:42:40.441Z,95635.09
2023-03-13T11:45:22.162Z,95626.00
2023-03-13T11:48:22.670Z,95621.66
2023-03-13T11:51:14.227Z,95608.78
2023-03-13T11:54:09.615Z,95617.28
2023-03-13T11:56:49.826Z,95613.25
2023-03-13T11:59:35.529Z,95602.22
2023-03-13T12:02:21.265Z,95600.47
2023-03-13T12:04:58.642Z,95608.22
2023-03-13T12:07:30.701Z,95586.03
2023-03-13T12:10:18.343Z,95583.44
2023-03-13T12:13:10.448Z,95590.38
2023-03-13T12:15:58.561Z,95581.38
2023-03-13T12:18:39.149Z,95590.38
2023-03-13T12:21:21.866Z,95580.34
2023-03-13T12:24:13.371Z,95572.69
2023-03-13T12:27:13.270Z,95567.13
2023-03-13T12:29:49.167Z,95550.56
2023-03-13T12:32:40.239Z,95542.66
2023-03-13T12:35:18.979Z,95535.63
2023-03-13T12:37:58.395Z,95539.47
2023-03-13T12:40:35.432Z,95534.50
2023-03-13T12:43:15.383Z,95520.91
2023-03-13T12:45:57.316Z,95518.78
2023-03-13T12:49:01.652Z,95506.63
2023-03-13T12:51:44.038Z,95509.75
2023-03-13T12:54:56.797Z,95496.25
2023-03-13T12:58:21.382Z,95491.25
2023-03-13T13:00:50.285Z,95486.53
2023-03-13T13:03:27.269Z,95487.09
2023-03-13T13:06:11.917Z,95477.28
2023-03-13T13:08:43.132Z,95478.19
2023-03-13T13:11:35.046Z,95479.59
2023-03-13T13:14:18.073Z,95465.53
2023-03-13T13:16:50.338Z,95471.63
2023-03-13T13:19:23.255Z,95476.81
2023-03-13T13:22:36.994Z,95473.09
2023-03-13T13:25:33.226Z,95463.41
2023-03-13T13:28:35.544Z,95467.75
2023-03-13T13:31:41.556Z,95446.97
2023-03-13T13:34:08.485Z,95446.13
2023-03-13T13:36:42.557Z,95441.25
2023-03-13T13:39:34.706Z,95431.72
2023-03-13T13:42:16.530Z,95434.31
2023-03-13T13:45:18.471Z,95426.78
2023-03-13T13:47:50.510Z,95414.41
2023-03-13T13:50:27.423Z,95395.72
2023-03-13T13:53:34.689Z,95384.59
2023-03-13T13:56:10.231Z,95380.81
2023-03-13T13:58:43.860Z,95366.22
2023-03-13T14:01:17.208Z,95373.28
2023-03-13T14:03:44.792Z,95369.66
2023-03-13T14:06:24.182Z,95356.38
2023-03-13T14:08:56.783Z,95355.06
2023-03-13T14:11:28.182Z,95356.44
2023-03-13T14:14:19.764Z,95344.34
2023-03-13T14:16:59.179Z,95341.47
2023-03-13T14:19:43.360Z,95337.34
2023-03-13T14:22:14.257Z,95324.66
2023-03-13T14:24:41.148Z,95317.13
2023-03-13T14:27:19.581Z,95305.13
2023-03-13T14:30:06.048Z,95310.59
2023-03-13T14:32:33.018Z,95305.00
2023-03-13T14:34:59.907Z,95299.69
2023-03-13T14:37:44.672Z,95297.72
2023-03-13T14:40:28.960Z,95277.88
2023-03-13T14:42:59.463Z,95285.38
2023-03-13T14:45:28.644Z,95274.34
2023-03-13T14:48:02.367Z,95280.63
2023-03-13T14:50:29.360Z,95276.56
2023-03-13T14:53:05.152Z,95265.91
2023-03-13T14:55:35.196Z,95260.75
2023-03-13T14:58:27.481Z,95257.97
2023-03-13T15:00:55.976Z,95247.47
2023-03-13T15:03:33.604Z,95236.00
2023-03-13T15:06:12.674Z,95232.78
2023-03-13T15:08:43.799Z,95229.63
2023-03-13T15:11:33.824Z,95221.97
2023-03-13T15:14:01.703Z,95217.97
2023-03-13T15:16:29.511Z,95216.66
2023-03-13T15:18:57.109Z,95206.25
2023-03-13T15:21:31.177Z,95190.97
2023-03-13T15:24:12.795Z,95182.75
2023-03-13T15:26:39.645Z,95166.72
2023-03-13T15:29:06.500Z,95174.09
2023-03-13T15:31:33.428Z,95167.16
2023-03-13T15:34:01.337Z,95165.09
2023-03-13T15:36:29.900Z,95161.09
2023-03-13T15:38:56.791Z,95158.53
2023-03-13T15:41:24.170Z,95148.13
2023-03-13T15:43:52.613Z,95151.28
2023-03-13T15:46:21.136Z,95141.59
2023-03-13T15:48:48.604Z,95134.59
2023-03-13T15:51:16.791Z,95125.41
2023-03-13T15:53:46.089Z,95126.84
2023-03-13T15:56:25.316Z,95117.72
2023-03-13T15:58:52.216Z,95117.56
2023-03-13T16:01:19.538Z,95109.34
2023-03-13T16:03:46.671Z,95102.75
2023-03-13T16:06:21.291Z,95114.50
2023-03-13T16:08:48.244Z,95095.53
2023-03-13T16:11:16.817Z,95094.28
2023-03-13T16:13:44.033Z,95085.13
2023-03-13T16:16:22.383Z,95078.31
2023-03-13T16:18:51.073Z,95076.94
2023-03-13T16:21:23.496Z,95073.28
2023-03-13T16:23:50.771Z,95065.38
2023-03-13T16:26:24.757Z,95068.75
2023-03-13T16:28:52.512Z,95066.25
2023-03-13T16:31:28.112Z,95063.41
2023-03-13T16:33:56.628Z,95067.13
2023-03-13T16:36:31.062Z,95051.66
2023-03-13T16:38:59.662Z,95060.00
2023-03-13T16:41:28.156Z,95045.56
2023-03-13T16:43:55.744Z,95036.53
2023-03-13T16:46:46.004Z,95033.03
2023-03-13T16:49:16.930Z,95029.84
2023-03-13T16:51:43.738Z,95021.16
2023-03-13T16:54:12.480Z,95017.00
2023-03-13T16:56:45.153Z,95010.06
2023-03-13T16:59:18.995Z,95018.13
2023-03-13T17:01:47.105Z,95015.94
2023-03-13T17:04:14.580Z,95018.03
2023-03-13T17:06:44.470Z,95009.78
2023-03-13T17:09:16.893Z,94999.69
2023-03-13T17:11:44.092Z,95008.69
2023-03-13T17:14:11.671Z,95009.91
2023-03-13T17:16:44.254Z,95008.75
2023-03-13T17:19:15.035Z,95002.16
2023-03-13T17:21:42.036Z,95015.19
2023-03-13T17:24:08.928Z,94992.75
2023-03-13T17:26:38.979Z,94997.06
2023-03-13T17:29:07.555Z,94994.50
2023-03-13T17:31:38.455Z,94998.38
2023-03-13T17:34:09.163Z,94987.72
2023-03-13T17:36:36.780Z,94979.91
2023-03-13T17:39:06.397Z,94981.38
2023-03-13T17:41:35.192Z,94977.31
2023-03-13T17:44:03.725Z,94981.03
2023-03-13T17:46:33.962Z,94976.38
2023-03-13T17:49:01.832Z,94975.88
2023-03-13T17:51:32.116Z,94966.44
2023-03-13T17:54:00.100Z,94960.19
2023-03-13T17:56:30.926Z,94968.69
2023-03-13T17:59:00.894Z,94968.69
2023-03-13T18:01:31.182Z,94968.81
2023-03-13T18:03:58.663Z,94965.09
2023-03-13T18:06:44.478Z,94962.47
2023-03-13T18:09:21.703Z,94970.94
2023-03-13T18:11:49.654Z,94964.81
2023-03-13T18:14:16.492Z,94971.38
2023-03-13T18:16:50.492Z,94962.94
2023-03-13T18:19:26.059Z,94966.16
2023-03-13T18:21:55.547Z,94958.19
2023-03-13T18:24:22.945Z,94953.47
2023-03-13T18:26:50.635Z,94947.13
2023-03-13T18:29:26.351Z,94947.13
2023-03-13T18:32:00.270Z,94929.09
2023-03-13T18:34:28.766Z,94919.81
2023-03-13T18:36:56.307Z,94923.28
2023-03-13T18:39:23.193Z,94913.75
2023-03-13T18:41:52.317Z,94903.16
2023-03-13T18:44:20.918Z,94905.25
2023-03-13T18:46:47.767Z,94890.41
2023-03-13T18:49:20.175Z,94897.00
2023-03-13T18:51:48.642Z,94885.06
2023-03-13T18:54:15.698Z,94876.09
2023-03-13T18:56:45.193Z,94869.19
2023-03-13T18:59:16.178Z,94855.97
2023-03-13T19:01:43.091Z,94856.78
2023-03-13T19:04:09.964Z,94845.94
2023-03-13T19:06:37.288Z,94832.69
2023-03-13T19:09:37.808Z,94826.31
2023-03-13T19:11:59.571Z,94826.28
2023-03-13T19:14:26.364Z,94823.97
2023-03-13T19:16:56.053Z,94819.34
2023-03-13T19:19:24.426Z,94817.22
2023-03-13T19:21:53.149Z,94818.31
2023-03-13T19:24:26.414Z,94809.28
2023-03-13T19:26:58.927Z,94805.09
2023-03-13T19:29:28.599Z,94793.97
2023-03-13T19:31:56.731Z,94800.59
2023-03-13T19:34:23.664Z,94791.03
2023-03-13T19:36:53.205Z,94801.84
2023-03-13T19:39:25.220Z,94798.09
2023-03-13T19:41:53.501Z,94794.38
2023-03-13T19:44:21.718Z,94789.09
2023-03-13T19:46:49.092Z,94787.66
2023-03-13T19:49:18.901Z,94777.34
2023-03-13T19:51:46.133Z,94769.00
2023-03-13T19:54:13.580Z,94768.09
2023-03-13T19:56:44.408Z,94776.56
2023-03-13T19:59:20.652Z,94760.19
2023-03-13T20:01:47.806Z,94751.47
2023-03-13T20:04:15.194Z,94755.72
2023-03-13T20:06:43.721Z,94758.69
2023-03-13T20:09:15.037Z,94751.28
2023-03-13T20:11:42.570Z,94745.47
2023-03-13T20:14:12.488Z,94753.75
2023-03-13T20:16:39.983Z,94756.47
2023-03-13T20:19:07.005Z,94759.66
2023-03-13T20:21:39.140Z,94764.41
2023-03-13T20:24:06.361Z,94762.03
2023-03-13T20:26:33.220Z,94761.19
2023-03-13T20:29:01.939Z,94768.78
2023-03-13T20:31:31.941Z,94768.03
2023-03-13T20:33:59.758Z,94771.97
2023-03-13T20:36:27.733Z,94763.72
2023-03-13T20:38:54.871Z,94770.00
2023-03-13T20:41:25.682Z,94765.16
2023-03-13T20:43:53.279Z,94772.97
2023-03-13T20:46:21.080Z,94769.56
2023-03-13T20:48:48.151Z,94769.03
2023-03-13T20:51:15.209Z,94768.19
2023-03-13T20:53:42.948Z,94777.75
2023-03-13T20:56:11.463Z,94768.31
2023-03-13T20:58:39.332Z,94766.09
2023-03-13T21:01:07.797Z,94758.75
2023-03-13T21:03:35.852Z,94756.19
2023-03-13T21:06:15.008Z,94750.72
2023-03-13T21:08:41.965Z,94759.38
2023-03-13T21:11:17.697Z,94757.56
2023-03-13T21:13:45.145Z,94755.41
2023-03-13T21:16:15.750Z,94767.75
2023-03-13T21:18:43.083Z,94748.81
2023-03-13T21:21:17.008Z,94752.00
2023-03-13T21:23:44.891Z,94759.53
2023-03-13T21:26:12.638Z,94755.47
2023-03-13T21:28:40.297Z,94757.31
2023-03-13T21:31:16.839Z,94754.91
2023-03-13T21:33:45.344Z,94754.81
2023-03-13T21:36:15.811Z,94741.13
2023-03-13T21:38:42.740Z,94741.44
2023-03-13T21:41:21.272Z,94743.00
2023-03-13T21:43:49.725Z,94737.56
2023-03-13T21:46:19.750Z,94756.41
2023-03-13T21:48:47.547Z,94755.94
2023-03-13T21:51:14.401Z,94757.59
2023-03-13T21:53:44.657Z,94769.78
2023-03-13T21:56:15.404Z,94779.63
2023-03-13T21:58:43.925Z,94807.88
2023-03-13T22:01:12.771Z,94824.31
2023-03-13T22:03:40.241Z,94848.88
2023-03-13T22:06:19.267Z,94888.47
2023-03-13T22:08:47.160Z,94960.81
2023-03-13T22:11:14.121Z,94954.16
2023-03-13T22:13:41.019Z,94968.44
2023-03-13T22:16:10.362Z,94958.25
2023-03-13T22:18:38.142Z,94949.81
2023-03-13T22:21:05.219Z,94932.38
2023-03-13T22:23:32.091Z,94950.97
2023-03-13T22:25:59.541Z,94971.63
2023-03-13T22:28:26.850Z,94994.31
2023-03-13T22:30:53.639Z,95010.22
2023-03-13T22:33:20.559Z,95008.84
2023-03-13T22:35:52.328Z,95008.38
2023-03-13T22:38:20.541Z,95015.41
2023-03-13T22:40:48.881Z,94994.78
2023-03-13T22:43:15.695Z,94999.72
2023-03-13T22:45:42.528Z,94987.81
2023-03-13T22:48:09.462Z,94995.34
2023-03-13T22:50:36.746Z,94994.69
2023-03-13T22:53:04.368Z,94994.47
2023-03-13T22:55:33.256Z,94995.88
2023-03-13T22:58:00.852Z,94986.88
2023-03-13T23:00:27.830Z,94987.34
2023-03-13T23:02:54.951Z,94986.28
2023-03-13T23:05:21.790Z,94963.63
2023-03-13T23:07:50.850Z,94944.75
2023-03-13T23:10:19.130Z,94957.69
2023-03-13T23:12:45.946Z,94957.69
2023-03-13T23:15:12.895Z,94952.34
2023-03-13T23:17:39.737Z,94954.69
2023-03-13T23:20:12.782Z,94947.34
2023-03-13T23:22:45.140Z,94948.09
2023-03-13T23:25:13.947Z,94940.63
2023-03-13T23:27:42.095Z,94923.22
2023-03-13T23:30:12.951Z,94918.47
2023-03-13T23:32:43.543Z,94913.69
2023-03-13T23:35:11.829Z,94933.19
2023-03-13T23:37:39.421Z,94937.97
2023-03-13T23:40:10.001Z,94948.22
2023-03-13T23:42:36.876Z,94958.47
2023-03-13T23:45:05.537Z,94978.88
2023-03-13T23:47:33.634Z,94981.06
2023-03-13T23:50:00.757Z,94986.78
2023-03-13T23:52:27.729Z,94983.38
2023-03-13T23:54:54.650Z,94977.78
2023-03-13T23:57:21.432Z,94975.13
2023-03-13T23:59:49.150Z,94976.66
